createdAt,value
2019-03-29T00:02:14.479Z,17.03
2019-03-29T00:04:45.525Z,16.97
2019-03-29T00:07:16.261Z,16.20
2019-03-29T00:09:46.598Z,15.00
2019-03-29T00:12:16.990Z,15.50
2019-03-29T00:14:47.332Z,15.77
2019-03-29T00:17:18.339Z,17.57
2019-03-29T00:19:49.215Z,18.00
2019-03-29T00:22:19.579Z,16.60
2019-03-29T00:24:49.923Z,17.93
2019-03-29T00:27:20.914Z,16.40
2019-03-29T00:29:51.645Z,15.80
2019-03-29T00:32:22.289Z,17.10
2019-03-29T00:34:53.063Z,15.90
2019-03-29T00:37:24.064Z,16.37
2019-03-29T00:39:54.447Z,16.87
2019-03-29T00:42:25.432Z,15.70
2019-03-29T00:44:55.799Z,15.83
2019-03-29T00:47:27.163Z,16.30
2019-03-29T00:49:57.595Z,16.57
2019-03-29T00:52:27.959Z,15.93
2019-03-29T00:54:58.607Z,16.97
2019-03-29T00:57:28.969Z,17.13
2019-03-29T00:59:59.686Z,16.00
2019-03-29T01:02:30.048Z,17.27
2019-03-29T01:05:01.570Z,16.80
2019-03-29T01:07:32.442Z,16.30
2019-03-29T01:10:03.457Z,16.67
2019-03-29T01:12:33.823Z,16.70
2019-03-29T01:15:08.904Z,17.50
2019-03-29T01:17:39.731Z,17.57
2019-03-29T01:20:10.514Z,18.47
2019-03-29T01:22:41.739Z,18.43
2019-03-29T01:25:12.080Z,19.20
2019-03-29T01:27:42.744Z,19.63
2019-03-29T01:30:13.107Z,20.73
2019-03-29T01:32:43.472Z,19.53
2019-03-29T01:35:13.920Z,19.20
2019-03-29T01:37:44.272Z,19.40
2019-03-29T01:40:15.211Z,20.90
2019-03-29T01:42:45.579Z,19.83
2019-03-29T01:45:16.290Z,20.30
2019-03-29T01:47:47.352Z,21.60
2019-03-29T01:50:18.186Z,21.47
2019-03-29T01:52:48.939Z,21.00
2019-03-29T01:55:19.759Z,20.50
2019-03-29T01:57:50.123Z,20.30
2019-03-29T02:00:42.139Z,21.40
2019-03-29T02:03:13.181Z,21.20
2019-03-29T02:05:43.722Z,20.87
2019-03-29T02:08:14.082Z,22.60
2019-03-29T02:10:44.434Z,21.83
2019-03-29T02:13:15.147Z,21.50
2019-03-29T02:15:45.826Z,21.13
2019-03-29T02:18:16.339Z,19.85
2019-03-29T02:20:46.700Z,19.90
2019-03-29T02:23:17.041Z,19.93
2019-03-29T02:25:48.208Z,19.50
2019-03-29T02:28:19.032Z,20.43
2019-03-29T02:30:49.644Z,18.57
2019-03-29T02:33:20.802Z,19.47
2019-03-29T02:35:51.908Z,18.10
2019-03-29T02:38:23.624Z,19.40
2019-03-29T02:40:54.919Z,17.90
2019-03-29T02:43:25.286Z,18.30
2019-03-29T02:45:57.598Z,15.63
2019-03-29T02:48:27.805Z,17.13
2019-03-29T02:50:58.178Z,17.10
2019-03-29T02:53:28.499Z,15.93
2019-03-29T02:55:59.376Z,17.07
2019-03-29T02:58:29.891Z,16.73
2019-03-29T03:01:00.255Z,16.07
2019-03-29T03:03:30.592Z,16.13
2019-03-29T03:06:01.753Z,16.40
2019-03-29T03:08:33.111Z,15.10
2019-03-29T03:11:04.687Z,15.07
2019-03-29T03:13:35.115Z,15.97
2019-03-29T03:16:05.845Z,14.60
2019-03-29T03:18:36.573Z,15.48
2019-03-29T03:21:06.918Z,16.43
2019-03-29T03:23:37.524Z,14.73
2019-03-29T03:26:07.920Z,17.10
2019-03-29T03:28:40.843Z,17.07
2019-03-29T03:31:11.504Z,18.10
2019-03-29T03:33:41.856Z,17.73
2019-03-29T03:36:13.160Z,15.83
2019-03-29T03:38:43.960Z,16.50
2019-03-29T03:41:15.186Z,17.40
2019-03-29T03:43:45.539Z,18.43
2019-03-29T03:46:15.886Z,18.33
2019-03-29T03:48:46.246Z,17.80
2019-03-29T03:51:16.613Z,18.98
2019-03-29T03:53:47.365Z,17.83
2019-03-29T03:56:18.448Z,19.17
2019-03-29T03:58:48.781Z,18.63
2019-03-29T04:01:20.123Z,18.23
2019-03-29T04:03:51.111Z,19.23
2019-03-29T04:06:21.465Z,20.07
2019-03-29T04:08:51.820Z,20.17
2019-03-29T04:11:22.205Z,19.73
2019-03-29T04:13:52.690Z,19.53
2019-03-29T04:16:23.038Z,20.90
2019-03-29T04:18:53.761Z,21.30
2019-03-29T04:21:24.101Z,19.13
2019-03-29T04:23:54.438Z,20.83
2019-03-29T04:26:24.826Z,23.17
2019-03-29T04:29:04.334Z,21.47
2019-03-29T04:31:27.930Z,23.65
2019-03-29T04:33:58.407Z,22.93
2019-03-29T04:36:28.761Z,24.77
2019-03-29T04:38:59.087Z,25.33
2019-03-29T04:41:29.809Z,23.43
2019-03-29T04:44:00.543Z,25.63
2019-03-29T04:46:31.216Z,25.47
2019-03-29T04:49:01.875Z,24.20
2019-03-29T04:51:32.233Z,26.70
2019-03-29T04:54:02.837Z,27.00
2019-03-29T04:56:33.579Z,26.57
2019-03-29T04:59:04.689Z,27.10
2019-03-29T05:01:35.062Z,26.50
2019-03-29T05:04:06.066Z,26.90
2019-03-29T05:06:36.399Z,26.87
2019-03-29T05:09:07.147Z,29.13
2019-03-29T05:11:37.846Z,28.90
2019-03-29T05:14:08.461Z,26.93
2019-03-29T05:16:38.806Z,27.20
2019-03-29T05:19:09.892Z,27.10
2019-03-29T05:21:40.612Z,29.90
2019-03-29T05:24:11.548Z,27.90
2019-03-29T05:26:42.021Z,29.03
2019-03-29T05:29:12.383Z,27.77
2019-03-29T05:31:43.457Z,30.10
2019-03-29T05:34:14.192Z,32.13
2019-03-29T05:36:45.118Z,31.60
2019-03-29T05:39:15.497Z,31.73
2019-03-29T05:41:45.907Z,31.17
2019-03-29T05:44:17.114Z,31.70
2019-03-29T05:46:48.179Z,28.77
2019-03-29T05:49:18.584Z,31.97
2019-03-29T05:51:48.948Z,29.13
2019-03-29T05:54:19.673Z,31.10
2019-03-29T05:56:50.718Z,33.17
2019-03-29T05:59:40.490Z,30.40
2019-03-29T06:02:10.876Z,32.28
2019-03-29T06:04:41.579Z,32.07
2019-03-29T06:07:12.295Z,31.90
2019-03-29T06:09:43.015Z,33.80
2019-03-29T06:12:13.359Z,30.97
2019-03-29T06:14:43.754Z,32.37
2019-03-29T06:17:14.784Z,31.80
2019-03-29T06:19:45.431Z,31.30
2019-03-29T06:22:15.806Z,31.40
2019-03-29T06:24:46.936Z,32.33
2019-03-29T06:27:17.980Z,31.50
2019-03-29T06:29:48.612Z,31.70
2019-03-29T06:32:19.330Z,31.20
2019-03-29T06:34:49.960Z,32.20
2019-03-29T06:37:20.604Z,29.70
2019-03-29T06:39:51.011Z,31.40
2019-03-29T06:42:21.692Z,29.27
2019-03-29T06:44:52.413Z,31.33
2019-03-29T06:47:23.195Z,29.90
2019-03-29T06:49:54.206Z,29.80
2019-03-29T06:52:25.415Z,28.90
2019-03-29T06:54:55.831Z,31.63
2019-03-29T06:57:26.512Z,31.03
2019-03-29T06:59:57.875Z,28.60
2019-03-29T07:02:28.258Z,27.93
2019-03-29T07:04:58.628Z,30.23
2019-03-29T07:07:28.998Z,29.57
2019-03-29T07:09:59.656Z,29.70
2019-03-29T07:12:32.476Z,28.17
2019-03-29T07:15:02.824Z,30.47
2019-03-29T07:17:33.242Z,29.70
2019-03-29T07:20:05.656Z,29.93
2019-03-29T07:22:37.145Z,30.10
2019-03-29T07:25:08.323Z,31.27
2019-03-29T07:27:44.264Z,31.33
2019-03-29T07:30:10.807Z,31.80
2019-03-29T07:32:41.225Z,34.83
2019-03-29T07:35:11.963Z,32.87
2019-03-29T07:37:42.712Z,30.60
2019-03-29T07:40:13.098Z,32.53
2019-03-29T07:42:43.807Z,29.63
2019-03-29T07:45:14.461Z,32.10
2019-03-29T07:47:44.872Z,32.63
2019-03-29T07:50:18.918Z,34.03
2019-03-29T07:52:47.919Z,34.23
2019-03-29T07:55:19.150Z,33.33
2019-03-29T07:57:49.841Z,31.97
2019-03-29T08:00:20.672Z,31.07
2019-03-29T08:02:51.777Z,31.80
2019-03-29T08:05:22.149Z,29.70
2019-03-29T08:07:52.851Z,30.03
2019-03-29T08:10:28.858Z,31.00
2019-03-29T08:12:56.373Z,31.10
2019-03-29T08:15:27.308Z,31.30
2019-03-29T08:18:01.373Z,31.73
2019-03-29T08:20:41.966Z,31.10
2019-03-29T08:23:02.189Z,31.77
2019-03-29T08:25:32.940Z,29.50
2019-03-29T08:28:03.976Z,30.20
2019-03-29T08:30:34.586Z,29.30
2019-03-29T08:33:05.327Z,30.10
2019-03-29T08:35:36.046Z,29.87
2019-03-29T08:38:06.478Z,27.73
2019-03-29T08:40:37.134Z,30.87
2019-03-29T08:43:07.765Z,28.20
2019-03-29T08:45:38.111Z,27.47
2019-03-29T08:48:08.550Z,25.63
2019-03-29T08:50:38.901Z,28.00
2019-03-29T08:53:09.582Z,28.80
2019-03-29T08:55:45.955Z,28.50
2019-03-29T08:58:12.026Z,27.73
2019-03-29T09:00:42.387Z,27.97
2019-03-29T09:03:13.216Z,27.30
2019-03-29T09:05:43.910Z,27.87
2019-03-29T09:08:18.945Z,25.00
2019-03-29T09:10:49.867Z,26.13
2019-03-29T09:13:20.401Z,25.90
2019-03-29T09:15:51.609Z,26.13
2019-03-29T09:18:25.737Z,25.13
2019-03-29T09:20:54.469Z,25.97
2019-03-29T09:23:25.214Z,27.47
2019-03-29T09:25:55.583Z,23.97
2019-03-29T09:28:26.302Z,26.00
2019-03-29T09:30:56.906Z,24.60
2019-03-29T09:33:27.500Z,23.60
2019-03-29T09:35:57.918Z,23.00
2019-03-29T09:38:28.595Z,24.10
2019-03-29T09:40:59.476Z,24.20
2019-03-29T09:43:29.949Z,24.20
2019-03-29T09:46:03.278Z,22.30
2019-03-29T09:48:34.751Z,22.50
2019-03-29T09:51:05.362Z,23.60
2019-03-29T09:53:36.103Z,21.20
2019-03-29T09:56:07.106Z,22.83
2019-03-29T09:58:37.450Z,21.70
2019-03-29T10:01:08.526Z,22.17
2019-03-29T10:03:39.054Z,21.83
2019-03-29T10:06:10.150Z,21.43
2019-03-29T10:08:40.912Z,19.10
2019-03-29T10:11:11.303Z,20.90
2019-03-29T10:13:41.654Z,18.90
2019-03-29T10:16:12.004Z,20.90
2019-03-29T10:18:43.045Z,17.97
2019-03-29T10:21:16.903Z,18.47
2019-03-29T10:23:45.942Z,19.10
2019-03-29T10:26:16.331Z,17.90
2019-03-29T10:28:47.089Z,16.10
2019-03-29T10:31:31.518Z,17.30
2019-03-29T10:33:49.994Z,14.63
2019-03-29T10:36:20.372Z,15.13
2019-03-29T10:38:50.720Z,15.83
2019-03-29T10:41:22.543Z,13.20
2019-03-29T10:43:53.351Z,13.80
2019-03-29T10:46:24.380Z,12.50
2019-03-29T10:48:55.149Z,14.00
2019-03-29T10:51:26.291Z,13.40
2019-03-29T10:53:56.711Z,11.87
2019-03-29T10:56:34.160Z,12.17
2019-03-29T10:58:59.592Z,10.10
2019-03-29T11:01:29.983Z,11.00
2019-03-29T11:04:00.780Z,10.50
2019-03-29T11:06:31.120Z,11.20
2019-03-29T11:09:01.554Z,9.50
2019-03-29T11:11:32.421Z,8.93
2019-03-29T11:14:03.533Z,8.83
2019-03-29T11:16:34.478Z,10.07
2019-03-29T11:19:05.271Z,5.63
2019-03-29T11:21:36.035Z,6.63
2019-03-29T11:24:09.096Z,6.93
2019-03-29T11:26:38.850Z,6.50
2019-03-29T11:29:09.219Z,5.40
2019-03-29T11:31:40.113Z,4.77
2019-03-29T11:34:11.213Z,3.50
2019-03-29T11:36:41.899Z,4.17
2019-03-29T11:39:12.287Z,4.60
2019-03-29T11:41:43.125Z,3.57
2019-03-29T11:44:13.479Z,3.20
2019-03-29T11:46:44.210Z,2.90
2019-03-29T11:49:14.629Z,2.67
2019-03-29T11:51:45.363Z,2.70
2019-03-29T11:54:15.734Z,2.37
2019-03-29T11:56:47.734Z,3.47
2019-03-29T11:59:18.310Z,4.10
2019-03-29T12:01:49.446Z,3.60
2019-03-29T12:04:19.913Z,3.20
2019-03-29T12:06:50.549Z,3.37
2019-03-29T12:09:20.907Z,3.67
2019-03-29T12:11:51.560Z,3.70
2019-03-29T12:14:22.489Z,2.73
2019-03-29T12:16:53.432Z,3.47
2019-03-29T12:19:24.914Z,3.80
2019-03-29T12:21:55.829Z,3.60
2019-03-29T12:24:26.470Z,2.70
2019-03-29T12:26:56.837Z,3.10
2019-03-29T12:29:27.462Z,3.23
2019-03-29T12:31:57.804Z,3.03
2019-03-29T12:34:28.264Z,3.10
2019-03-29T12:36:58.939Z,3.40
2019-03-29T12:39:29.539Z,2.90
2019-03-29T12:41:59.966Z,3.47
2019-03-29T12:44:30.607Z,3.20
2019-03-29T12:47:01.339Z,3.57
2019-03-29T12:49:32.432Z,3.13
2019-03-29T12:52:03.371Z,3.80
2019-03-29T12:54:33.983Z,3.17
2019-03-29T12:57:06.869Z,3.30
2019-03-29T12:59:37.329Z,3.83
2019-03-29T13:02:07.731Z,4.17
2019-03-29T13:04:39.132Z,3.53
2019-03-29T13:07:09.724Z,3.63
2019-03-29T13:09:40.166Z,3.70
2019-03-29T13:12:10.877Z,4.40
2019-03-29T13:14:41.826Z,4.33
2019-03-29T13:17:12.419Z,4.00
2019-03-29T13:19:43.492Z,4.80
2019-03-29T13:22:14.095Z,5.30
2019-03-29T13:24:44.763Z,4.63
2019-03-29T13:27:15.585Z,6.03
2019-03-29T13:29:46.200Z,5.00
2019-03-29T13:32:16.514Z,5.20
2019-03-29T13:34:47.048Z,5.80
2019-03-29T13:37:18.158Z,5.13
2019-03-29T13:39:48.506Z,5.60
2019-03-29T13:42:18.878Z,5.30
2019-03-29T13:44:49.213Z,6.20
2019-03-29T13:47:19.541Z,5.87
2019-03-29T13:49:49.978Z,5.23
2019-03-29T13:52:20.336Z,5.30
2019-03-29T13:54:50.698Z,5.00
2019-03-29T13:57:21.327Z,6.83
2019-03-29T13:59:51.666Z,6.00
2019-03-29T14:02:22.004Z,5.37
2019-03-29T14:04:52.776Z,5.17
2019-03-29T14:07:23.786Z,6.07
2019-03-29T14:09:54.121Z,5.60
2019-03-29T14:12:24.839Z,6.43
2019-03-29T14:14:55.617Z,5.90
2019-03-29T14:17:25.955Z,5.70
2019-03-29T14:19:56.841Z,6.37
2019-03-29T14:22:27.219Z,6.30
2019-03-29T14:24:57.560Z,6.03
2019-03-29T14:27:27.946Z,5.17
2019-03-29T14:30:04.746Z,6.60
2019-03-29T14:32:30.354Z,7.70
2019-03-29T14:35:01.375Z,6.87
2019-03-29T14:37:32.113Z,6.63
2019-03-29T14:40:02.541Z,6.23
2019-03-29T14:42:33.307Z,6.97
2019-03-29T14:45:05.849Z,7.20
2019-03-29T14:47:43.384Z,6.40
2019-03-29T14:50:09.824Z,6.70
2019-03-29T14:52:40.189Z,6.63
2019-03-29T14:58:59.685Z,7.40
2019-03-29T15:01:30.390Z,6.30
2019-03-29T15:04:01.382Z,7.30
2019-03-29T15:06:32.603Z,7.33
2019-03-29T15:09:04.800Z,6.90
2019-03-29T15:11:35.177Z,6.43
2019-03-29T15:14:05.570Z,7.70
2019-03-29T15:16:35.917Z,7.50
2019-03-29T15:19:06.276Z,6.17
2019-03-29T15:21:36.678Z,6.70
2019-03-29T15:24:07.035Z,6.53
2019-03-29T15:26:37.741Z,7.10
2019-03-29T15:29:08.481Z,6.13
2019-03-29T15:31:38.842Z,6.10
2019-03-29T15:34:09.935Z,7.23
2019-03-29T15:36:40.352Z,7.43
2019-03-29T15:39:11.074Z,6.67
2019-03-29T15:41:41.432Z,6.30
2019-03-29T15:44:11.821Z,5.93
2019-03-29T15:46:42.175Z,5.83
2019-03-29T15:49:12.538Z,5.60
2019-03-29T15:51:43.252Z,5.50
2019-03-29T15:54:13.616Z,5.73
2019-03-29T15:56:44.308Z,6.67
2019-03-29T15:59:14.700Z,6.20
2019-03-29T16:01:45.133Z,6.20
2019-03-29T16:04:15.923Z,6.17
2019-03-29T16:06:48.710Z,6.90
2019-03-29T16:09:19.497Z,5.93
2019-03-29T16:11:50.561Z,6.03
2019-03-29T16:14:21.312Z,6.57
2019-03-29T16:16:52.369Z,6.03
2019-03-29T16:19:22.704Z,6.63
2019-03-29T16:21:53.382Z,6.07
2019-03-29T16:24:23.740Z,6.07
2019-03-29T16:27:13.573Z,5.87
2019-03-29T16:29:44.277Z,6.37
2019-03-29T16:32:15.090Z,5.50
2019-03-29T16:34:45.967Z,6.50
2019-03-29T16:37:16.284Z,6.70
2019-03-29T16:39:47.017Z,6.47
2019-03-29T16:42:18.014Z,7.37
2019-03-29T16:44:48.456Z,6.07
2019-03-29T16:47:18.866Z,7.07
2019-03-29T16:49:49.714Z,7.33
2019-03-29T16:52:20.076Z,7.87
2019-03-29T16:54:50.832Z,8.70
2019-03-29T16:57:21.514Z,8.20
2019-03-29T16:59:52.197Z,8.20
2019-03-29T17:02:23.127Z,7.27
2019-03-29T17:04:54.150Z,8.17
2019-03-29T17:07:24.806Z,7.60
2019-03-29T17:09:55.157Z,8.00
2019-03-29T17:12:25.990Z,8.63
2019-03-29T17:14:56.434Z,6.83
2019-03-29T17:17:27.218Z,7.60
2019-03-29T17:19:57.614Z,9.13
2019-03-29T17:22:28.279Z,7.53
2019-03-29T17:24:59.430Z,8.60
2019-03-29T17:27:30.158Z,7.50
2019-03-29T17:30:00.519Z,8.50
2019-03-29T17:32:30.879Z,7.40
2019-03-29T17:35:01.531Z,7.70
2019-03-29T17:37:32.518Z,8.50
2019-03-29T17:40:03.534Z,8.57
2019-03-29T17:42:33.975Z,8.20
2019-03-29T17:45:06.828Z,8.70
2019-03-29T17:47:37.525Z,8.87
2019-03-29T17:50:07.902Z,8.30
2019-03-29T17:52:38.289Z,9.30
2019-03-29T17:55:08.973Z,9.20
2019-03-29T17:57:39.956Z,8.67
2019-03-29T18:00:12.477Z,9.67
2019-03-29T18:02:43.116Z,8.70
2019-03-29T18:05:14.051Z,8.47
2019-03-29T18:07:44.663Z,7.90
2019-03-29T18:10:15.343Z,8.97
2019-03-29T18:12:46.129Z,7.50
2019-03-29T18:15:16.509Z,9.00
2019-03-29T18:17:47.293Z,8.10
2019-03-29T18:20:17.758Z,8.00
2019-03-29T18:22:48.654Z,8.30
2019-03-29T18:25:19.170Z,8.70
2019-03-29T18:27:50.338Z,8.90
2019-03-29T18:30:40.247Z,9.03
2019-03-29T18:33:11.670Z,9.80
2019-03-29T18:35:42.376Z,9.17
2019-03-29T18:38:13.155Z,9.20
2019-03-29T18:40:43.813Z,9.00
2019-03-29T18:43:14.620Z,8.10
2019-03-29T18:45:45.699Z,8.43
2019-03-29T18:48:16.209Z,8.00
2019-03-29T18:50:46.679Z,8.50
2019-03-29T18:53:17.127Z,8.87
2019-03-29T18:55:47.723Z,8.53
2019-03-29T18:58:18.442Z,8.97
2019-03-29T19:00:48.987Z,8.77
2019-03-29T19:03:20.041Z,9.17
2019-03-29T19:05:50.884Z,8.80
2019-03-29T19:08:23.671Z,9.50
2019-03-29T19:10:54.141Z,10.10
2019-03-29T19:13:24.821Z,10.03
2019-03-29T19:15:55.155Z,10.60
2019-03-29T19:18:25.900Z,10.70
2019-03-29T19:20:56.263Z,12.87
2019-03-29T19:23:26.908Z,12.50
2019-03-29T19:25:58.005Z,11.33
2019-03-29T19:28:28.730Z,11.60
2019-03-29T19:30:59.091Z,13.90
2019-03-29T19:33:29.484Z,13.77
2019-03-29T19:35:59.847Z,41.03
2019-03-29T19:38:30.218Z,54.03
2019-03-29T19:41:00.874Z,24.00
2019-03-29T19:43:31.209Z,18.30
2019-03-29T19:46:01.748Z,15.27
2019-03-29T19:48:32.167Z,13.00
2019-03-29T19:51:02.508Z,13.87
2019-03-29T19:53:34.459Z,12.30
2019-03-29T19:56:05.511Z,13.07
2019-03-29T19:58:35.869Z,13.15
2019-03-29T20:01:06.221Z,12.13
2019-03-29T20:03:37.007Z,10.80
2019-03-29T20:06:07.735Z,10.57
2019-03-29T20:08:39.836Z,9.87
2019-03-29T20:11:10.270Z,12.20
2019-03-29T20:13:40.999Z,14.05
2019-03-29T20:16:11.818Z,15.85
2019-03-29T20:18:42.836Z,16.95
2019-03-29T20:21:13.697Z,17.57
2019-03-29T20:23:44.112Z,17.62
2019-03-29T20:26:15.362Z,17.20
2019-03-29T20:28:45.734Z,15.28
2019-03-29T20:31:16.433Z,14.58
2019-03-29T20:33:47.462Z,14.80
2019-03-29T20:36:23.150Z,14.20
2019-03-29T20:38:50.932Z,12.63
2019-03-29T20:41:21.609Z,12.13
2019-03-29T20:43:51.975Z,12.47
2019-03-29T20:46:22.783Z,12.35
2019-03-29T20:48:53.519Z,12.40
2019-03-29T20:51:25.334Z,12.60
2019-03-29T20:53:56.037Z,11.85
2019-03-29T20:56:28.885Z,11.88
2019-03-29T20:58:58.859Z,10.50
2019-03-29T21:01:29.252Z,11.30
2019-03-29T21:04:00.266Z,10.50
2019-03-29T21:06:30.980Z,9.85
2019-03-29T21:09:01.312Z,9.78
2019-03-29T21:11:31.693Z,9.48
2019-03-29T21:14:02.460Z,9.83
2019-03-29T21:16:32.933Z,9.88
2019-03-29T21:19:03.643Z,10.30
2019-03-29T21:21:34.319Z,10.48
2019-03-29T21:24:24.099Z,8.95
2019-03-29T21:26:55.275Z,9.00
2019-03-29T21:29:25.684Z,9.70
2019-03-29T21:31:56.426Z,7.47
2019-03-29T21:34:26.902Z,9.00
2019-03-29T21:36:57.591Z,8.00
2019-03-29T21:39:31.129Z,8.73
2019-03-29T21:42:00.199Z,8.55
2019-03-29T21:44:30.580Z,8.00
2019-03-29T21:47:01.220Z,9.00
2019-03-29T21:49:31.633Z,8.50
2019-03-29T21:52:02.132Z,9.03
2019-03-29T21:54:32.933Z,8.95
2019-03-29T21:57:03.602Z,8.75
2019-03-29T21:59:33.985Z,9.20
2019-03-29T22:02:04.361Z,7.58
2019-03-29T22:04:35.111Z,8.95
2019-03-29T22:07:05.811Z,8.38
2019-03-29T22:09:37.382Z,7.67
2019-03-29T22:12:07.860Z,8.60
2019-03-29T22:14:38.309Z,10.20
2019-03-29T22:17:09.178Z,10.25
2019-03-29T22:19:39.899Z,9.93
2019-03-29T22:22:10.545Z,10.93
2019-03-29T22:24:41.407Z,11.45
2019-03-29T22:27:12.280Z,10.72
2019-03-29T22:29:42.747Z,11.63
2019-03-29T22:32:13.156Z,10.00
2019-03-29T22:34:43.804Z,9.30
2019-03-29T22:37:14.426Z,8.90
2019-03-29T22:39:44.924Z,8.35
2019-03-29T22:42:15.366Z,10.13
2019-03-29T22:47:12.257Z,9.05
2019-03-29T22:49:43.269Z,8.88
2019-03-29T22:52:13.622Z,9.40
2019-03-29T22:54:43.971Z,9.30
2019-03-29T22:57:14.706Z,8.95
2019-03-29T22:59:45.356Z,9.00
2019-03-29T23:02:16.187Z,10.32
2019-03-29T23:04:46.673Z,11.43
2019-03-29T23:07:17.030Z,9.60
2019-03-29T23:09:47.485Z,9.58
2019-03-29T23:12:18.195Z,9.65
2019-03-29T23:14:48.935Z,11.20
2019-03-29T23:17:19.853Z,13.20
2019-03-29T23:19:50.581Z,14.47
2019-03-29T23:22:21.662Z,14.18
2019-03-29T23:24:52.021Z,16.12
2019-03-29T23:27:22.354Z,14.05
2019-03-29T23:29:52.909Z,13.15
2019-03-29T23:32:23.328Z,13.38
2019-03-29T23:34:54.392Z,10.18
2019-03-29T23:37:25.561Z,8.30
2019-03-29T23:39:56.129Z,7.58
2019-03-29T23:42:26.572Z,7.35
2019-03-29T23:44:56.993Z,7.65
2019-03-29T23:47:27.693Z,7.15
2019-03-29T23:50:17.474Z,8.30
2019-03-29T23:52:47.839Z,8.45
2019-03-29T23:55:18.577Z,7.97
2019-03-29T23:57:49.384Z,7.92
